sensor_id;sensor_type;location;lat;lon;timestamp;P1;durP1;ratioP1;P2;durP2;ratioP2
19364;SDS011;9818;48.382;10.850;2024-03-02T00:01:18;1.20;;;1.10;;
19364;SDS011;9818;48.382;10.850;2024-03-02T00:03:47;1.33;;;1.20;;
19364;SDS011;9818;48.382;10.850;2024-03-02T00:06:18;1.30;;;1.20;;
19364;SDS011;9818;48.382;10.850;2024-03-02T00:08:48;1.20;;;1.10;;
19364;SDS011;9818;48.382;10.850;2024-03-02T00:11:17;1.27;;;1.17;;
19364;SDS011;9818;48.382;10.850;2024-03-02T00:13:49;1.23;;;1.13;;
19364;SDS011;9818;48.382;10.850;2024-03-02T00:16:20;1.30;;;1.20;;
19364;SDS011;9818;48.382;10.850;2024-03-02T00:18:49;1.57;;;1.20;;
19364;SDS011;9818;48.382;10.850;2024-03-02T00:21:18;1.30;;;1.20;;
19364;SDS011;9818;48.382;10.850;2024-03-02T00:23:48;1.40;;;1.30;;
19364;SDS011;9818;48.382;10.850;2024-03-02T00:26:18;1.30;;;1.20;;
19364;SDS011;9818;48.382;10.850;2024-03-02T00:28:49;1.23;;;1.13;;
19364;SDS011;9818;48.382;10.850;2024-03-02T00:31:22;1.00;;;1.00;;
19364;SDS011;9818;48.382;10.850;2024-03-02T00:33:51;1.20;;;1.10;;
19364;SDS011;9818;48.382;10.850;2024-03-02T00:36:22;1.17;;;1.10;;
19364;SDS011;9818;48.382;10.850;2024-03-02T00:38:54;1.20;;;1.10;;
19364;SDS011;9818;48.382;10.850;2024-03-02T00:41:23;1.10;;;1.00;;
19364;SDS011;9818;48.382;10.850;2024-03-02T00:43:59;1.30;;;1.20;;
19364;SDS011;9818;48.382;10.850;2024-03-02T00:46:33;1.30;;;1.20;;
19364;SDS011;9818;48.382;10.850;2024-03-02T00:49:03;1.20;;;1.10;;
19364;SDS011;9818;48.382;10.850;2024-03-02T00:51:33;1.20;;;1.10;;
19364;SDS011;9818;48.382;10.850;2024-03-02T00:54:03;1.30;;;1.20;;
19364;SDS011;9818;48.382;10.850;2024-03-02T00:56:33;1.30;;;1.20;;
19364;SDS011;9818;48.382;10.850;2024-03-02T00:59:05;1.20;;;1.10;;
19364;SDS011;9818;48.382;10.850;2024-03-02T01:01:34;1.40;;;1.30;;
19364;SDS011;9818;48.382;10.850;2024-03-02T01:04:03;1.20;;;1.10;;
19364;SDS011;9818;48.382;10.850;2024-03-02T01:06:31;1.47;;;1.37;;
19364;SDS011;9818;48.382;10.850;2024-03-02T01:09:00;1.40;;;1.30;;
19364;SDS011;9818;48.382;10.850;2024-03-02T01:11:30;1.20;;;1.10;;
19364;SDS011;9818;48.382;10.850;2024-03-02T01:13:59;1.30;;;1.17;;
19364;SDS011;9818;48.382;10.850;2024-03-02T01:16:31;1.23;;;1.13;;
19364;SDS011;9818;48.382;10.850;2024-03-02T01:19:00;1.30;;;1.20;;
19364;SDS011;9818;48.382;10.850;2024-03-02T01:21:29;1.67;;;1.23;;
19364;SDS011;9818;48.382;10.850;2024-03-02T01:23:58;0.97;;;0.97;;
19364;SDS011;9818;48.382;10.850;2024-03-02T01:26:27;1.30;;;1.20;;
19364;SDS011;9818;48.382;10.850;2024-03-02T01:28:56;0.87;;;0.87;;
19364;SDS011;9818;48.382;10.850;2024-03-02T01:31:24;1.40;;;1.30;;
19364;SDS011;9818;48.382;10.850;2024-03-02T01:33:56;1.20;;;1.10;;
19364;SDS011;9818;48.382;10.850;2024-03-02T01:36:24;1.10;;;1.00;;
19364;SDS011;9818;48.382;10.850;2024-03-02T01:38:51;1.20;;;1.10;;
19364;SDS011;9818;48.382;10.850;2024-03-02T01:41:19;1.40;;;1.30;;
19364;SDS011;9818;48.382;10.850;2024-03-02T01:43:48;1.10;;;1.00;;
19364;SDS011;9818;48.382;10.850;2024-03-02T01:46:17;1.40;;;1.30;;
19364;SDS011;9818;48.382;10.850;2024-03-02T01:48:46;1.37;;;1.20;;
19364;SDS011;9818;48.382;10.850;2024-03-02T01:51:17;1.20;;;1.10;;
19364;SDS011;9818;48.382;10.850;2024-03-02T01:53:46;1.20;;;1.10;;
19364;SDS011;9818;48.382;10.850;2024-03-02T01:56:15;1.37;;;1.27;;
19364;SDS011;9818;48.382;10.850;2024-03-02T01:58:44;0.90;;;0.90;;
19364;SDS011;9818;48.382;10.850;2024-03-02T02:01:12;1.23;;;1.13;;
19364;SDS011;9818;48.382;10.850;2024-03-02T02:03:42;1.10;;;1.00;;
19364;SDS011;9818;48.382;10.850;2024-03-02T02:06:12;1.37;;;1.20;;
19364;SDS011;9818;48.382;10.850;2024-03-02T02:08:43;1.20;;;1.10;;
19364;SDS011;9818;48.382;10.850;2024-03-02T02:11:14;1.23;;;1.13;;
19364;SDS011;9818;48.382;10.850;2024-03-02T02:13:43;1.20;;;1.10;;
19364;SDS011;9818;48.382;10.850;2024-03-02T02:16:12;1.30;;;1.20;;
19364;SDS011;9818;48.382;10.850;2024-03-02T02:18:41;1.33;;;1.10;;
19364;SDS011;9818;48.382;10.850;2024-03-02T02:21:10;1.30;;;1.20;;
19364;SDS011;9818;48.382;10.850;2024-03-02T02:23:41;1.40;;;1.30;;
19364;SDS011;9818;48.382;10.850;2024-03-02T02:26:13;1.30;;;1.20;;
19364;SDS011;9818;48.382;10.850;2024-03-02T02:28:42;1.30;;;1.20;;
19364;SDS011;9818;48.382;10.850;2024-03-02T02:31:12;1.70;;;1.40;;
19364;SDS011;9818;48.382;10.850;2024-03-02T02:33:41;1.40;;;1.30;;
19364;SDS011;9818;48.382;10.850;2024-03-02T02:36:10;1.27;;;1.17;;
19364;SDS011;9818;48.382;10.850;2024-03-02T02:38:40;1.20;;;1.10;;
19364;SDS011;9818;48.382;10.850;2024-03-02T02:41:15;1.20;;;1.10;;
19364;SDS011;9818;48.382;10.850;2024-03-02T02:43:44;1.33;;;1.23;;
19364;SDS011;9818;48.382;10.850;2024-03-02T02:46:13;1.27;;;1.17;;
19364;SDS011;9818;48.382;10.850;2024-03-02T02:48:41;1.27;;;1.17;;
19364;SDS011;9818;48.382;10.850;2024-03-02T02:51:10;1.30;;;1.20;;
19364;SDS011;9818;48.382;10.850;2024-03-02T02:53:39;1.63;;;1.20;;
19364;SDS011;9818;48.382;10.850;2024-03-02T02:56:10;1.30;;;1.20;;
19364;SDS011;9818;48.382;10.850;2024-03-02T02:58:39;1.20;;;1.10;;
19364;SDS011;9818;48.382;10.850;2024-03-02T03:01:09;1.17;;;1.13;;
19364;SDS011;9818;48.382;10.850;2024-03-02T03:03:38;0.90;;;0.90;;
19364;SDS011;9818;48.382;10.850;2024-03-02T03:06:07;1.30;;;1.17;;
19364;SDS011;9818;48.382;10.850;2024-03-02T03:08:36;1.13;;;1.13;;
19364;SDS011;9818;48.382;10.850;2024-03-02T03:11:04;1.20;;;1.10;;
19364;SDS011;9818;48.382;10.850;2024-03-02T03:13:36;1.40;;;1.30;;
19364;SDS011;9818;48.382;10.850;2024-03-02T03:16:05;1.40;;;1.30;;
19364;SDS011;9818;48.382;10.850;2024-03-02T03:18:34;1.00;;;0.90;;
19364;SDS011;9818;48.382;10.850;2024-03-02T03:21:00;1.37;;;1.27;;
19364;SDS011;9818;48.382;10.850;2024-03-02T03:23:29;1.77;;;1.33;;
19364;SDS011;9818;48.382;10.850;2024-03-02T03:25:57;1.43;;;1.20;;
19364;SDS011;9818;48.382;10.850;2024-03-02T03:28:26;1.20;;;1.10;;
19364;SDS011;9818;48.382;10.850;2024-03-02T03:30:55;1.20;;;1.10;;
19364;SDS011;9818;48.382;10.850;2024-03-02T03:33:24;1.10;;;1.00;;
19364;SDS011;9818;48.382;10.850;2024-03-02T03:35:52;1.13;;;1.07;;
19364;SDS011;9818;48.382;10.850;2024-03-02T03:38:21;1.10;;;1.00;;
19364;SDS011;9818;48.382;10.850;2024-03-02T03:40:50;0.90;;;0.90;;
19364;SDS011;9818;48.382;10.850;2024-03-02T03:43:19;1.20;;;1.10;;
19364;SDS011;9818;48.382;10.850;2024-03-02T03:45:48;1.10;;;1.00;;
19364;SDS011;9818;48.382;10.850;2024-03-02T03:48:19;1.17;;;1.07;;
19364;SDS011;9818;48.382;10.850;2024-03-02T03:50:48;1.20;;;1.10;;
19364;SDS011;9818;48.382;10.850;2024-03-02T03:53:16;1.10;;;1.00;;
19364;SDS011;9818;48.382;10.850;2024-03-02T03:55:45;1.13;;;1.03;;
19364;SDS011;9818;48.382;10.850;2024-03-02T03:58:14;1.20;;;1.10;;
19364;SDS011;9818;48.382;10.850;2024-03-02T04:00:45;0.90;;;0.90;;
19364;SDS011;9818;48.382;10.850;2024-03-02T04:03:14;1.20;;;1.10;;
19364;SDS011;9818;48.382;10.850;2024-03-02T04:05:46;1.13;;;1.10;;
19364;SDS011;9818;48.382;10.850;2024-03-02T04:08:15;1.30;;;1.20;;
19364;SDS011;9818;48.382;10.850;2024-03-02T04:10:44;1.17;;;1.10;;
19364;SDS011;9818;48.382;10.850;2024-03-02T04:13:12;1.40;;;1.30;;
19364;SDS011;9818;48.382;10.850;2024-03-02T04:15:41;1.00;;;0.90;;
19364;SDS011;9818;48.382;10.850;2024-03-02T04:18:10;1.30;;;1.20;;
19364;SDS011;9818;48.382;10.850;2024-03-02T04:20:39;1.30;;;1.20;;
19364;SDS011;9818;48.382;10.850;2024-03-02T04:23:10;1.00;;;1.00;;
19364;SDS011;9818;48.382;10.850;2024-03-02T04:25:39;1.17;;;1.03;;
19364;SDS011;9818;48.382;10.850;2024-03-02T04:28:08;1.37;;;1.27;;
19364;SDS011;9818;48.382;10.850;2024-03-02T04:30:37;1.20;;;1.10;;
19364;SDS011;9818;48.382;10.850;2024-03-02T04:33:07;1.30;;;1.20;;
19364;SDS011;9818;48.382;10.850;2024-03-02T04:35:36;1.30;;;1.20;;
19364;SDS011;9818;48.382;10.850;2024-03-02T04:38:04;1.40;;;1.30;;
19364;SDS011;9818;48.382;10.850;2024-03-02T04:40:36;1.33;;;1.23;;
19364;SDS011;9818;48.382;10.850;2024-03-02T04:43:04;0.93;;;0.93;;
19364;SDS011;9818;48.382;10.850;2024-03-02T04:45:34;1.10;;;1.00;;
19364;SDS011;9818;48.382;10.850;2024-03-02T04:48:04;1.20;;;1.10;;
19364;SDS011;9818;48.382;10.850;2024-03-02T04:50:33;1.07;;;1.07;;
19364;SDS011;9818;48.382;10.850;2024-03-02T04:53:02;1.13;;;1.03;;
19364;SDS011;9818;48.382;10.850;2024-03-02T04:55:31;1.30;;;1.20;;
19364;SDS011;9818;48.382;10.850;2024-03-02T04:58:15;1.07;;;1.00;;
19364;SDS011;9818;48.382;10.850;2024-03-02T05:00:44;1.03;;;0.97;;
19364;SDS011;9818;48.382;10.850;2024-03-02T05:03:13;1.23;;;1.13;;
19364;SDS011;9818;48.382;10.850;2024-03-02T05:05:42;1.23;;;1.13;;
19364;SDS011;9818;48.382;10.850;2024-03-02T05:08:10;0.90;;;0.90;;
19364;SDS011;9818;48.382;10.850;2024-03-02T05:10:41;1.30;;;1.20;;
19364;SDS011;9818;48.382;10.850;2024-03-02T05:13:10;1.00;;;1.00;;
19364;SDS011;9818;48.382;10.850;2024-03-02T05:15:41;1.00;;;1.00;;
19364;SDS011;9818;48.382;10.850;2024-03-02T05:18:10;0.93;;;0.90;;
19364;SDS011;9818;48.382;10.850;2024-03-02T05:20:40;1.30;;;1.20;;
19364;SDS011;9818;48.382;10.850;2024-03-02T05:23:08;1.23;;;1.13;;
19364;SDS011;9818;48.382;10.850;2024-03-02T05:25:37;1.00;;;1.00;;
19364;SDS011;9818;48.382;10.850;2024-03-02T05:28:07;1.20;;;1.10;;
19364;SDS011;9818;48.382;10.850;2024-03-02T05:30:35;1.17;;;1.07;;
19364;SDS011;9818;48.382;10.850;2024-03-02T05:33:07;0.97;;;0.97;;
19364;SDS011;9818;48.382;10.850;2024-03-02T05:35:35;1.20;;;1.10;;
19364;SDS011;9818;48.382;10.850;2024-03-02T05:38:02;1.03;;;1.03;;
19364;SDS011;9818;48.382;10.850;2024-03-02T05:40:31;1.03;;;1.00;;
19364;SDS011;9818;48.382;10.850;2024-03-02T05:43:00;1.20;;;1.10;;
19364;SDS011;9818;48.382;10.850;2024-03-02T05:45:28;0.90;;;0.90;;
19364;SDS011;9818;48.382;10.850;2024-03-02T05:47:57;0.90;;;0.90;;
19364;SDS011;9818;48.382;10.850;2024-03-02T05:50:28;1.20;;;1.10;;
19364;SDS011;9818;48.382;10.850;2024-03-02T05:52:57;1.27;;;1.17;;
19364;SDS011;9818;48.382;10.850;2024-03-02T05:55:26;1.30;;;1.20;;
19364;SDS011;9818;48.382;10.850;2024-03-02T05:57:55;1.43;;;1.33;;
19364;SDS011;9818;48.382;10.850;2024-03-02T06:00:42;1.17;;;1.07;;
19364;SDS011;9818;48.382;10.850;2024-03-02T06:03:11;1.00;;;1.00;;
19364;SDS011;9818;48.382;10.850;2024-03-02T06:05:42;1.20;;;1.20;;
19364;SDS011;9818;48.382;10.850;2024-03-02T06:08:14;1.00;;;1.00;;
19364;SDS011;9818;48.382;10.850;2024-03-02T06:10:43;1.37;;;1.17;;
19364;SDS011;9818;48.382;10.850;2024-03-02T06:13:12;1.23;;;1.13;;
19364;SDS011;9818;48.382;10.850;2024-03-02T06:15:40;1.23;;;1.13;;
19364;SDS011;9818;48.382;10.850;2024-03-02T06:18:09;1.20;;;1.10;;
19364;SDS011;9818;48.382;10.850;2024-03-02T06:20:38;1.30;;;1.20;;
19364;SDS011;9818;48.382;10.850;2024-03-02T06:23:09;1.00;;;1.00;;
19364;SDS011;9818;48.382;10.850;2024-03-02T06:25:38;1.20;;;1.10;;
19364;SDS011;9818;48.382;10.850;2024-03-02T06:28:07;1.73;;;1.07;;
19364;SDS011;9818;48.382;10.850;2024-03-02T06:30:36;1.10;;;1.00;;
19364;SDS011;9818;48.382;10.850;2024-03-02T06:33:04;0.90;;;0.90;;
19364;SDS011;9818;48.382;10.850;2024-03-02T06:35:33;1.00;;;1.00;;
19364;SDS011;9818;48.382;10.850;2024-03-02T06:38:02;1.10;;;1.00;;
19364;SDS011;9818;48.382;10.850;2024-03-02T06:40:34;1.30;;;1.20;;
19364;SDS011;9818;48.382;10.850;2024-03-02T06:43:03;1.20;;;1.10;;
19364;SDS011;9818;48.382;10.850;2024-03-02T06:45:32;1.40;;;1.30;;
19364;SDS011;9818;48.382;10.850;2024-03-02T06:48:01;1.17;;;1.07;;
19364;SDS011;9818;48.382;10.850;2024-03-02T06:50:30;1.80;;;1.00;;
19364;SDS011;9818;48.382;10.850;2024-03-02T06:52:59;1.07;;;1.03;;
19364;SDS011;9818;48.382;10.850;2024-03-02T06:55:29;1.17;;;1.07;;
19364;SDS011;9818;48.382;10.850;2024-03-02T06:58:01;1.20;;;1.10;;
19364;SDS011;9818;48.382;10.850;2024-03-02T07:00:30;1.20;;;1.10;;
19364;SDS011;9818;48.382;10.850;2024-03-02T07:02:59;1.10;;;1.10;;
19364;SDS011;9818;48.382;10.850;2024-03-02T07:05:27;1.23;;;1.13;;
19364;SDS011;9818;48.382;10.850;2024-03-02T07:07:56;1.40;;;1.20;;
19364;SDS011;9818;48.382;10.850;2024-03-02T07:10:26;1.30;;;1.20;;
19364;SDS011;9818;48.382;10.850;2024-03-02T07:12:55;1.20;;;1.10;;
19364;SDS011;9818;48.382;10.850;2024-03-02T07:15:26;1.10;;;1.00;;
19364;SDS011;9818;48.382;10.850;2024-03-02T07:18:15;1.00;;;1.00;;
19364;SDS011;9818;48.382;10.850;2024-03-02T07:20:44;1.30;;;1.20;;
19364;SDS011;9818;48.382;10.850;2024-03-02T07:23:14;1.23;;;1.10;;
19364;SDS011;9818;48.382;10.850;2024-03-02T07:25:43;0.97;;;0.90;;
19364;SDS011;9818;48.382;10.850;2024-03-02T07:28:12;1.23;;;1.13;;
19364;SDS011;9818;48.382;10.850;2024-03-02T07:30:43;1.30;;;1.00;;
19364;SDS011;9818;48.382;10.850;2024-03-02T07:33:13;1.00;;;1.00;;
19364;SDS011;9818;48.382;10.850;2024-03-02T07:35:42;1.10;;;1.00;;
19364;SDS011;9818;48.382;10.850;2024-03-02T07:38:10;1.20;;;1.10;;
19364;SDS011;9818;48.382;10.850;2024-03-02T07:40:39;1.20;;;1.10;;
19364;SDS011;9818;48.382;10.850;2024-03-02T07:43:08;1.30;;;1.20;;
19364;SDS011;9818;48.382;10.850;2024-03-02T07:45:37;0.90;;;0.90;;
19364;SDS011;9818;48.382;10.850;2024-03-02T07:48:08;1.00;;;1.00;;
19364;SDS011;9818;48.382;10.850;2024-03-02T07:50:37;1.17;;;1.07;;
19364;SDS011;9818;48.382;10.850;2024-03-02T07:53:06;1.03;;;1.00;;
19364;SDS011;9818;48.382;10.850;2024-03-02T07:55:35;1.77;;;1.40;;
19364;SDS011;9818;48.382;10.850;2024-03-02T07:58:04;1.30;;;1.20;;
19364;SDS011;9818;48.382;10.850;2024-03-02T08:00:33;1.17;;;1.07;;
19364;SDS011;9818;48.382;10.850;2024-03-02T08:03:02;1.13;;;1.00;;
19364;SDS011;9818;48.382;10.850;2024-03-02T08:05:34;1.30;;;1.20;;
19364;SDS011;9818;48.382;10.850;2024-03-02T08:08:03;1.10;;;1.00;;
19364;SDS011;9818;48.382;10.850;2024-03-02T08:10:32;1.40;;;1.30;;
19364;SDS011;9818;48.382;10.850;2024-03-02T08:13:01;1.00;;;1.00;;
19364;SDS011;9818;48.382;10.850;2024-03-02T08:15:30;1.00;;;1.00;;
19364;SDS011;9818;48.382;10.850;2024-03-02T08:17:59;1.10;;;1.10;;
19364;SDS011;9818;48.382;10.850;2024-03-02T08:20:28;1.00;;;1.00;;
19364;SDS011;9818;48.382;10.850;2024-03-02T08:22:59;1.40;;;1.30;;
19364;SDS011;9818;48.382;10.850;2024-03-02T08:25:28;1.20;;;1.10;;
19364;SDS011;9818;48.382;10.850;2024-03-02T08:27:57;1.20;;;1.10;;
19364;SDS011;9818;48.382;10.850;2024-03-02T08:30:26;1.10;;;1.00;;
19364;SDS011;9818;48.382;10.850;2024-03-02T08:32:55;1.10;;;1.07;;
19364;SDS011;9818;48.382;10.850;2024-03-02T08:35:24;1.20;;;1.10;;
19364;SDS011;9818;48.382;10.850;2024-03-02T08:37:53;1.00;;;1.00;;
19364;SDS011;9818;48.382;10.850;2024-03-02T08:40:24;1.20;;;1.10;;
19364;SDS011;9818;48.382;10.850;2024-03-02T08:42:53;1.00;;;1.00;;
19364;SDS011;9818;48.382;10.850;2024-03-02T08:45:22;1.00;;;1.00;;
19364;SDS011;9818;48.382;10.850;2024-03-02T08:47:51;1.20;;;1.10;;
19364;SDS011;9818;48.382;10.850;2024-03-02T08:50:20;1.17;;;1.10;;
19364;SDS011;9818;48.382;10.850;2024-03-02T08:52:49;1.20;;;1.10;;
19364;SDS011;9818;48.382;10.850;2024-03-02T08:55:17;1.40;;;1.30;;
19364;SDS011;9818;48.382;10.850;2024-03-02T08:57:49;0.90;;;0.90;;
19364;SDS011;9818;48.382;10.850;2024-03-02T09:00:18;1.43;;;1.20;;
19364;SDS011;9818;48.382;10.850;2024-03-02T09:02:47;1.10;;;1.00;;
19364;SDS011;9818;48.382;10.850;2024-03-02T09:05:16;1.47;;;0.80;;
19364;SDS011;9818;48.382;10.850;2024-03-02T09:07:44;1.13;;;1.03;;
19364;SDS011;9818;48.382;10.850;2024-03-02T09:10:13;1.00;;;0.90;;
19364;SDS011;9818;48.382;10.850;2024-03-02T09:12:42;0.97;;;0.97;;
19364;SDS011;9818;48.382;10.850;2024-03-02T09:15:14;0.93;;;0.83;;
19364;SDS011;9818;48.382;10.850;2024-03-02T09:17:43;0.90;;;0.90;;
19364;SDS011;9818;48.382;10.850;2024-03-02T09:20:12;1.00;;;1.00;;
19364;SDS011;9818;48.382;10.850;2024-03-02T09:22:41;0.80;;;0.80;;
19364;SDS011;9818;48.382;10.850;2024-03-02T09:25:12;1.10;;;1.00;;
19364;SDS011;9818;48.382;10.850;2024-03-02T09:27:41;1.30;;;1.20;;
19364;SDS011;9818;48.382;10.850;2024-03-02T09:30:10;0.90;;;0.90;;
19364;SDS011;9818;48.382;10.850;2024-03-02T09:32:42;0.90;;;0.80;;
19364;SDS011;9818;48.382;10.850;2024-03-02T09:35:11;0.80;;;0.80;;
19364;SDS011;9818;48.382;10.850;2024-03-02T09:37:40;1.40;;;0.90;;
19364;SDS011;9818;48.382;10.850;2024-03-02T09:40:09;1.10;;;1.00;;
19364;SDS011;9818;48.382;10.850;2024-03-02T09:42:38;1.00;;;1.00;;
19364;SDS011;9818;48.382;10.850;2024-03-02T09:45:08;0.90;;;0.90;;
19364;SDS011;9818;48.382;10.850;2024-03-02T09:47:40;1.10;;;1.00;;
19364;SDS011;9818;48.382;10.850;2024-03-02T09:50:09;0.87;;;0.87;;
19364;SDS011;9818;48.382;10.850;2024-03-02T09:52:39;1.07;;;0.90;;
19364;SDS011;9818;48.382;10.850;2024-03-02T09:55:10;1.00;;;0.97;;
19364;SDS011;9818;48.382;10.850;2024-03-02T09:57:41;0.90;;;0.90;;
19364;SDS011;9818;48.382;10.850;2024-03-02T10:00:10;0.87;;;0.87;;
19364;SDS011;9818;48.382;10.850;2024-03-02T10:02:43;0.90;;;0.90;;
19364;SDS011;9818;48.382;10.850;2024-03-02T10:05:20;0.90;;;0.90;;
19364;SDS011;9818;48.382;10.850;2024-03-02T10:07:58;0.80;;;0.80;;
19364;SDS011;9818;48.382;10.850;2024-03-02T10:10:35;1.00;;;0.90;;
19364;SDS011;9818;48.382;10.850;2024-03-02T10:13:05;0.90;;;0.80;;
19364;SDS011;9818;48.382;10.850;2024-03-02T10:15:35;0.90;;;0.90;;
19364;SDS011;9818;48.382;10.850;2024-03-02T10:18:08;0.80;;;0.80;;
19364;SDS011;9818;48.382;10.850;2024-03-02T10:20:39;0.90;;;0.90;;
19364;SDS011;9818;48.382;10.850;2024-03-02T10:23:12;0.90;;;0.90;;
19364;SDS011;9818;48.382;10.850;2024-03-02T10:25:42;0.90;;;0.90;;
19364;SDS011;9818;48.382;10.850;2024-03-02T10:28:12;0.80;;;0.80;;
19364;SDS011;9818;48.382;10.850;2024-03-02T10:30:41;1.00;;;1.00;;
19364;SDS011;9818;48.382;10.850;2024-03-02T10:33:12;0.80;;;0.80;;
19364;SDS011;9818;48.382;10.850;2024-03-02T10:35:41;0.70;;;0.70;;
19364;SDS011;9818;48.382;10.850;2024-03-02T10:38:11;0.80;;;0.80;;
19364;SDS011;9818;48.382;10.850;2024-03-02T10:40:41;0.90;;;0.90;;
19364;SDS011;9818;48.382;10.850;2024-03-02T10:43:15;0.80;;;0.80;;
19364;SDS011;9818;48.382;10.850;2024-03-02T10:45:45;0.80;;;0.80;;
19364;SDS011;9818;48.382;10.850;2024-03-02T10:48:19;0.90;;;0.90;;
19364;SDS011;9818;48.382;10.850;2024-03-02T10:50:48;0.90;;;0.90;;
19364;SDS011;9818;48.382;10.850;2024-03-02T10:53:18;0.90;;;0.90;;
19364;SDS011;9818;48.382;10.850;2024-03-02T10:55:47;0.87;;;0.87;;
19364;SDS011;9818;48.382;10.850;2024-03-02T10:58:27;0.73;;;0.73;;
19364;SDS011;9818;48.382;10.850;2024-03-02T11:01:00;0.83;;;0.83;;
19364;SDS011;9818;48.382;10.850;2024-03-02T11:03:35;0.87;;;0.87;;
19364;SDS011;9818;48.382;10.850;2024-03-02T11:06:06;0.90;;;0.90;;
19364;SDS011;9818;48.382;10.850;2024-03-02T11:08:36;0.90;;;0.90;;
19364;SDS011;9818;48.382;10.850;2024-03-02T11:11:09;0.80;;;0.80;;
19364;SDS011;9818;48.382;10.850;2024-03-02T11:13:45;0.90;;;0.90;;
19364;SDS011;9818;48.382;10.850;2024-03-02T11:16:19;0.80;;;0.80;;
19364;SDS011;9818;48.382;10.850;2024-03-02T11:18:55;0.90;;;0.90;;
19364;SDS011;9818;48.382;10.850;2024-03-02T11:21:25;0.70;;;0.70;;
19364;SDS011;9818;48.382;10.850;2024-03-02T11:23:54;0.93;;;0.90;;
19364;SDS011;9818;48.382;10.850;2024-03-02T11:26:23;0.70;;;0.70;;
19364;SDS011;9818;48.382;10.850;2024-03-02T11:28:53;0.90;;;0.90;;
19364;SDS011;9818;48.382;10.850;2024-03-02T11:34:30;0.70;;;0.70;;
19364;SDS011;9818;48.382;10.850;2024-03-02T11:37:01;0.80;;;0.80;;
19364;SDS011;9818;48.382;10.850;2024-03-02T11:39:30;0.60;;;0.60;;
19364;SDS011;9818;48.382;10.850;2024-03-02T11:42:00;0.80;;;0.80;;
19364;SDS011;9818;48.382;10.850;2024-03-02T11:44:28;1.00;;;0.90;;
19364;SDS011;9818;48.382;10.850;2024-03-02T11:47:00;0.70;;;0.70;;
19364;SDS011;9818;48.382;10.850;2024-03-02T11:49:40;0.70;;;0.70;;
19364;SDS011;9818;48.382;10.850;2024-03-02T11:52:11;0.90;;;0.70;;
19364;SDS011;9818;48.382;10.850;2024-03-02T11:54:42;0.80;;;0.80;;
19364;SDS011;9818;48.382;10.850;2024-03-02T11:57:17;0.70;;;0.70;;
19364;SDS011;9818;48.382;10.850;2024-03-02T11:59:47;0.67;;;0.67;;
19364;SDS011;9818;48.382;10.850;2024-03-02T12:02:18;1.57;;;0.70;;
19364;SDS011;9818;48.382;10.850;2024-03-02T12:04:50;0.70;;;0.70;;
19364;SDS011;9818;48.382;10.850;2024-03-02T12:07:19;1.20;;;0.90;;
19364;SDS011;9818;48.382;10.850;2024-03-02T12:09:49;0.70;;;0.70;;
19364;SDS011;9818;48.382;10.850;2024-03-02T12:12:28;0.77;;;0.77;;
19364;SDS011;9818;48.382;10.850;2024-03-02T12:14:57;0.70;;;0.70;;
19364;SDS011;9818;48.382;10.850;2024-03-02T12:17:26;0.73;;;0.73;;
19364;SDS011;9818;48.382;10.850;2024-03-02T12:19:57;0.80;;;0.80;;
19364;SDS011;9818;48.382;10.850;2024-03-02T12:22:29;0.80;;;0.80;;
19364;SDS011;9818;48.382;10.850;2024-03-02T12:24:57;0.67;;;0.67;;
19364;SDS011;9818;48.382;10.850;2024-03-02T12:27:26;0.60;;;0.60;;
19364;SDS011;9818;48.382;10.850;2024-03-02T12:29:55;0.70;;;0.70;;
19364;SDS011;9818;48.382;10.850;2024-03-02T12:32:24;1.23;;;0.70;;
19364;SDS011;9818;48.382;10.850;2024-03-02T12:34:53;0.70;;;0.70;;
19364;SDS011;9818;48.382;10.850;2024-03-02T12:37:25;0.80;;;0.80;;
19364;SDS011;9818;48.382;10.850;2024-03-02T12:39:55;0.70;;;0.70;;
19364;SDS011;9818;48.382;10.850;2024-03-02T12:42:24;0.80;;;0.80;;
19364;SDS011;9818;48.382;10.850;2024-03-02T12:44:53;0.60;;;0.60;;
19364;SDS011;9818;48.382;10.850;2024-03-02T12:47:22;0.80;;;0.80;;
19364;SDS011;9818;48.382;10.850;2024-03-02T12:49:51;0.80;;;0.80;;
19364;SDS011;9818;48.382;10.850;2024-03-02T12:52:21;0.83;;;0.83;;
19364;SDS011;9818;48.382;10.850;2024-03-02T12:54:52;0.70;;;0.70;;
19364;SDS011;9818;48.382;10.850;2024-03-02T12:57:24;0.70;;;0.70;;
19364;SDS011;9818;48.382;10.850;2024-03-02T12:59:57;0.60;;;0.60;;
19364;SDS011;9818;48.382;10.850;2024-03-02T13:02:27;0.70;;;0.70;;
19364;SDS011;9818;48.382;10.850;2024-03-02T13:04:57;0.67;;;0.67;;
19364;SDS011;9818;48.382;10.850;2024-03-02T13:07:26;0.60;;;0.60;;
19364;SDS011;9818;48.382;10.850;2024-03-02T13:09:59;0.73;;;0.73;;
19364;SDS011;9818;48.382;10.850;2024-03-02T13:12:29;0.70;;;0.70;;
19364;SDS011;9818;48.382;10.850;2024-03-02T13:14:59;1.00;;;0.90;;
19364;SDS011;9818;48.382;10.850;2024-03-02T13:17:29;0.70;;;0.70;;
19364;SDS011;9818;48.382;10.850;2024-03-02T13:19:58;0.80;;;0.80;;
19364;SDS011;9818;48.382;10.850;2024-03-02T13:22:29;0.70;;;0.70;;
19364;SDS011;9818;48.382;10.850;2024-03-02T13:25:00;0.60;;;0.60;;
19364;SDS011;9818;48.382;10.850;2024-03-02T13:27:30;0.80;;;0.80;;
19364;SDS011;9818;48.382;10.850;2024-03-02T13:29:59;0.70;;;0.70;;
19364;SDS011;9818;48.382;10.850;2024-03-02T13:32:28;1.00;;;0.67;;
19364;SDS011;9818;48.382;10.850;2024-03-02T13:34:56;0.70;;;0.70;;
19364;SDS011;9818;48.382;10.850;2024-03-02T13:37:25;0.70;;;0.70;;
19364;SDS011;9818;48.382;10.850;2024-03-02T13:39:54;0.63;;;0.63;;
19364;SDS011;9818;48.382;10.850;2024-03-02T13:42:25;0.80;;;0.80;;
19364;SDS011;9818;48.382;10.850;2024-03-02T13:44:54;0.70;;;0.70;;
19364;SDS011;9818;48.382;10.850;2024-03-02T13:47:23;0.63;;;0.63;;
19364;SDS011;9818;48.382;10.850;2024-03-02T13:49:52;0.70;;;0.70;;
19364;SDS011;9818;48.382;10.850;2024-03-02T13:52:21;0.70;;;0.70;;
19364;SDS011;9818;48.382;10.850;2024-03-02T13:54:51;0.70;;;0.70;;
19364;SDS011;9818;48.382;10.850;2024-03-02T13:57:20;0.80;;;0.80;;
19364;SDS011;9818;48.382;10.850;2024-03-02T13:59:51;0.70;;;0.70;;
19364;SDS011;9818;48.382;10.850;2024-03-02T14:02:20;0.60;;;0.60;;
19364;SDS011;9818;48.382;10.850;2024-03-02T14:04:49;0.50;;;0.50;;
19364;SDS011;9818;48.382;10.850;2024-03-02T14:07:18;0.80;;;0.80;;
19364;SDS011;9818;48.382;10.850;2024-03-02T14:09:46;0.60;;;0.60;;
19364;SDS011;9818;48.382;10.850;2024-03-02T14:12:15;0.70;;;0.70;;
19364;SDS011;9818;48.382;10.850;2024-03-02T14:14:44;0.80;;;0.80;;
19364;SDS011;9818;48.382;10.850;2024-03-02T14:17:15;0.63;;;0.63;;
19364;SDS011;9818;48.382;10.850;2024-03-02T14:19:44;0.70;;;0.70;;
19364;SDS011;9818;48.382;10.850;2024-03-02T14:22:13;0.60;;;0.60;;
19364;SDS011;9818;48.382;10.850;2024-03-02T14:24:42;1.47;;;0.70;;
19364;SDS011;9818;48.382;10.850;2024-03-02T14:27:11;0.70;;;0.70;;
19364;SDS011;9818;48.382;10.850;2024-03-02T14:29:40;0.70;;;0.70;;
19364;SDS011;9818;48.382;10.850;2024-03-02T14:32:10;0.50;;;0.50;;
19364;SDS011;9818;48.382;10.850;2024-03-02T14:34:41;0.60;;;0.60;;
19364;SDS011;9818;48.382;10.850;2024-03-02T14:37:11;0.70;;;0.70;;
19364;SDS011;9818;48.382;10.850;2024-03-02T14:39:40;0.70;;;0.70;;
19364;SDS011;9818;48.382;10.850;2024-03-02T14:42:09;0.63;;;0.63;;
19364;SDS011;9818;48.382;10.850;2024-03-02T14:44:38;0.60;;;0.60;;
19364;SDS011;9818;48.382;10.850;2024-03-02T14:47:07;0.70;;;0.70;;
19364;SDS011;9818;48.382;10.850;2024-03-02T14:49:35;0.60;;;0.60;;
19364;SDS011;9818;48.382;10.850;2024-03-02T14:52:09;0.50;;;0.50;;
19364;SDS011;9818;48.382;10.850;2024-03-02T14:54:38;0.70;;;0.70;;
19364;SDS011;9818;48.382;10.850;2024-03-02T14:57:07;0.63;;;0.63;;
19364;SDS011;9818;48.382;10.850;2024-03-02T14:59:36;0.60;;;0.60;;
19364;SDS011;9818;48.382;10.850;2024-03-02T15:02:05;0.70;;;0.70;;
19364;SDS011;9818;48.382;10.850;2024-03-02T15:04:35;0.73;;;0.73;;
19364;SDS011;9818;48.382;10.850;2024-03-02T15:07:04;0.63;;;0.63;;